createdAt,value
2022-09-23T00:02:20.824Z,3.42
2022-09-23T00:04:48.392Z,3.78
2022-09-23T00:07:16.379Z,3.47
2022-09-23T00:09:43.930Z,3.45
2022-09-23T00:12:11.513Z,3.28
2022-09-23T00:14:40.812Z,3.55
2022-09-23T00:17:08.423Z,3.45
2022-09-23T00:19:36.129Z,3.20
2022-09-23T00:22:03.737Z,3.28
2022-09-23T00:24:32.423Z,3.30
2022-09-23T00:27:00.149Z,3.42
2022-09-23T00:29:27.719Z,3.70
2022-09-23T00:31:56.637Z,3.67
2022-09-23T00:34:24.372Z,3.50
2022-09-23T00:36:51.936Z,3.22
2022-09-23T00:39:19.492Z,3.10
2022-09-23T00:41:47.048Z,3.50
2022-09-23T00:44:32.965Z,3.25
2022-09-23T00:47:02.015Z,3.28
2022-09-23T00:49:30.593Z,3.13
2022-09-23T00:51:59.967Z,3.28
2022-09-23T00:54:28.493Z,3.08
2022-09-23T00:56:56.483Z,3.20
2022-09-23T00:59:26.126Z,3.25
2022-09-23T01:01:54.814Z,3.17
2022-09-23T01:04:24.511Z,3.25
2022-09-23T01:06:52.093Z,3.28
2022-09-23T01:09:19.720Z,3.40
2022-09-23T01:11:51.285Z,3.25
2022-09-23T01:14:26.250Z,3.08
2022-09-23T01:16:56.368Z,3.65
2022-09-23T01:19:32.743Z,3.88
2022-09-23T01:22:04.958Z,3.30
2022-09-23T01:24:50.243Z,3.30
2022-09-23T01:27:24.119Z,3.72
2022-09-23T01:30:16.698Z,3.55
2022-09-23T01:32:55.504Z,3.47
2022-09-23T01:35:27.190Z,3.55
2022-09-23T01:37:58.888Z,3.22
2022-09-23T01:40:30.370Z,2.78
2022-09-23T01:42:59.305Z,2.97
2022-09-23T01:45:32.175Z,3.55
2022-09-23T01:48:02.923Z,4.07
2022-09-23T01:50:50.918Z,3.55
2022-09-23T01:53:20.728Z,2.80
2022-09-23T01:55:50.716Z,3.47
2022-09-23T01:58:21.621Z,3.35
2022-09-23T02:00:52.220Z,2.85
2022-09-23T02:03:27.354Z,3.45
2022-09-23T02:05:57.670Z,2.40
2022-09-23T02:08:26.607Z,3.10
2022-09-23T02:10:56.108Z,3.22
2022-09-23T02:13:25.658Z,3.53
2022-09-23T02:15:55.264Z,3.65
2022-09-23T02:18:25.801Z,3.10
2022-09-23T02:20:57.138Z,3.70
2022-09-23T02:23:27.768Z,3.67
2022-09-23T02:25:57.145Z,2.90
2022-09-23T02:28:29.073Z,3.45
2022-09-23T02:31:00.228Z,3.17
2022-09-23T02:33:34.543Z,3.35
2022-09-23T02:36:06.675Z,3.55
2022-09-23T02:38:36.049Z,3.30
2022-09-23T02:41:06.416Z,3.40
2022-09-23T02:43:36.453Z,3.22
2022-09-23T02:46:04.312Z,2.92
2022-09-23T02:48:36.097Z,3.65
2022-09-23T02:51:04.300Z,3.50
2022-09-23T02:53:33.813Z,3.25
2022-09-23T02:56:01.421Z,3.30
2022-09-23T02:58:29.823Z,3.45
2022-09-23T03:01:01.987Z,3.35
2022-09-23T03:03:37.022Z,3.63
2022-09-23T03:06:10.083Z,3.30
2022-09-23T03:08:42.889Z,3.20
2022-09-23T03:11:11.863Z,3.42
2022-09-23T03:13:43.792Z,3.67
2022-09-23T03:16:17.527Z,3.35
2022-09-23T03:18:47.312Z,3.15
2022-09-23T03:21:18.773Z,3.58
2022-09-23T03:23:47.975Z,3.85
2022-09-23T03:26:18.581Z,3.33
2022-09-23T03:28:46.500Z,3.20
2022-09-23T03:31:14.815Z,3.58
2022-09-23T03:33:44.433Z,3.78
2022-09-23T03:36:30.327Z,3.00
2022-09-23T03:39:02.310Z,3.67
2022-09-23T03:41:32.614Z,3.30
2022-09-23T03:44:01.036Z,3.58
2022-09-23T03:46:29.899Z,3.67
2022-09-23T03:49:00.667Z,3.50
2022-09-23T03:51:28.232Z,3.55
2022-09-23T03:53:55.773Z,3.95
2022-09-23T03:56:24.673Z,3.80
2022-09-23T03:58:52.230Z,3.55
2022-09-23T04:01:19.842Z,3.72
2022-09-23T04:03:47.464Z,3.65
2022-09-23T04:06:15.054Z,3.13
2022-09-23T04:08:42.580Z,3.58
2022-09-23T04:11:10.131Z,3.78
2022-09-23T04:13:39.019Z,3.65
2022-09-23T04:16:06.731Z,3.55
2022-09-23T04:18:34.326Z,3.25
2022-09-23T04:21:01.901Z,3.60
2022-09-23T04:23:29.861Z,3.40
2022-09-23T04:25:57.383Z,3.97
2022-09-23T04:28:24.967Z,3.63
2022-09-23T04:30:55.064Z,3.63
2022-09-23T04:33:22.595Z,3.90
2022-09-23T04:35:51.203Z,3.95
2022-09-23T04:38:19.050Z,3.38
2022-09-23T04:40:46.671Z,3.50
2022-09-23T04:43:15.785Z,3.90
2022-09-23T04:45:43.483Z,3.22
2022-09-23T04:48:12.751Z,3.28
2022-09-23T04:50:40.518Z,3.80
2022-09-23T04:53:08.076Z,3.47
2022-09-23T04:55:35.671Z,3.70
2022-09-23T04:58:03.191Z,3.95
2022-09-23T05:00:30.774Z,4.07
2022-09-23T05:02:58.347Z,3.33
2022-09-23T05:05:29.429Z,2.90
2022-09-23T05:07:57.013Z,3.85
2022-09-23T05:10:24.801Z,3.10
2022-09-23T05:12:56.881Z,3.53
2022-09-23T05:15:24.960Z,3.25
2022-09-23T05:17:52.485Z,3.03
2022-09-23T05:20:20.657Z,3.95
2022-09-23T05:22:49.617Z,4.15
2022-09-23T05:25:17.289Z,3.65
2022-09-23T05:27:44.851Z,4.13
2022-09-23T05:30:12.674Z,3.90
2022-09-23T05:32:40.234Z,3.95
2022-09-23T05:35:08.052Z,3.50
2022-09-23T05:37:35.580Z,3.47
2022-09-23T05:40:04.983Z,3.85
2022-09-23T05:42:32.549Z,4.18
2022-09-23T05:45:00.236Z,3.45
2022-09-23T05:47:27.815Z,4.10
2022-09-23T05:50:00.118Z,3.42
2022-09-23T05:52:28.209Z,3.78
2022-09-23T05:54:55.770Z,3.80
2022-09-23T05:57:24.688Z,4.40
2022-09-23T05:59:52.263Z,3.80
2022-09-23T06:02:19.909Z,3.78
2022-09-23T06:04:47.561Z,3.67
2022-09-23T06:07:15.159Z,3.97
2022-09-23T06:09:43.236Z,3.80
2022-09-23T06:12:10.824Z,3.50
2022-09-23T06:14:39.688Z,4.28
2022-09-23T06:17:07.205Z,3.70
2022-09-23T06:19:34.730Z,3.97
2022-09-23T06:22:02.298Z,3.63
2022-09-23T06:24:31.668Z,3.88
2022-09-23T06:26:59.387Z,3.97
2022-09-23T06:29:26.940Z,4.05
2022-09-23T06:31:55.936Z,4.03
2022-09-23T06:34:23.490Z,4.13
2022-09-23T06:36:51.591Z,3.80
2022-09-23T06:39:19.155Z,4.28
2022-09-23T06:41:46.720Z,4.05
2022-09-23T06:44:14.495Z,4.30
2022-09-23T06:46:42.386Z,5.38
2022-09-23T06:49:13.297Z,7.13
2022-09-23T06:51:41.367Z,6.50
2022-09-23T06:54:09.149Z,6.68
2022-09-23T06:56:39.350Z,6.03
2022-09-23T06:59:08.283Z,10.35
2022-09-23T07:01:35.997Z,9.10
2022-09-23T07:04:03.723Z,6.68
2022-09-23T07:06:32.648Z,6.35
2022-09-23T07:09:00.992Z,5.18
2022-09-23T07:11:28.629Z,4.50
2022-09-23T07:13:56.199Z,4.10
2022-09-23T07:16:23.846Z,3.97
2022-09-23T07:18:55.721Z,4.38
2022-09-23T07:21:23.353Z,3.70
2022-09-23T07:23:52.756Z,3.78
2022-09-23T07:26:20.859Z,3.78
2022-09-23T07:28:48.476Z,4.30
2022-09-23T07:31:27.024Z,4.53
2022-09-23T07:34:00.988Z,4.10
2022-09-23T07:36:31.263Z,4.40
2022-09-23T07:39:03.255Z,4.28
2022-09-23T07:41:31.474Z,4.25
2022-09-23T07:44:00.412Z,4.30
2022-09-23T07:46:28.706Z,4.10
2022-09-23T07:48:56.351Z,4.75
2022-09-23T07:51:25.381Z,3.15
2022-09-23T07:53:53.518Z,4.03
2022-09-23T07:56:25.069Z,4.22
2022-09-23T07:59:00.976Z,2.13
2022-09-23T08:01:29.823Z,3.95
2022-09-23T08:03:57.717Z,3.88
2022-09-23T08:06:25.381Z,4.38
2022-09-23T08:08:53.662Z,4.05
2022-09-23T08:11:23.716Z,3.03
2022-09-23T08:13:51.381Z,3.80
2022-09-23T08:16:19.067Z,4.15
2022-09-23T08:18:47.100Z,2.60
2022-09-23T08:21:19.655Z,2.78
2022-09-23T08:23:47.255Z,3.88
2022-09-23T08:26:21.223Z,3.85
2022-09-23T08:28:54.441Z,3.75
2022-09-23T08:31:22.418Z,3.13
2022-09-23T08:33:54.293Z,3.67
2022-09-23T08:36:21.852Z,3.15
2022-09-23T08:38:49.410Z,3.22
2022-09-23T08:41:20.601Z,3.63
2022-09-23T08:43:49.682Z,4.30
2022-09-23T08:46:21.619Z,3.55
2022-09-23T08:48:50.214Z,3.63
2022-09-23T08:51:21.265Z,4.32
2022-09-23T08:53:48.856Z,4.05
2022-09-23T08:56:17.851Z,3.60
2022-09-23T08:58:50.237Z,3.67
2022-09-23T09:01:23.629Z,3.58
2022-09-23T09:03:53.696Z,4.45
2022-09-23T09:06:23.970Z,3.55
2022-09-23T09:08:54.590Z,3.67
2022-09-23T09:11:23.595Z,3.08
2022-09-23T09:13:54.593Z,3.83
2022-09-23T09:16:55.525Z,3.42
2022-09-23T09:19:20.150Z,3.10
2022-09-23T09:21:48.883Z,3.08
2022-09-23T09:24:22.404Z,2.63
2022-09-23T09:26:49.980Z,3.22
2022-09-23T09:29:35.733Z,3.85
2022-09-23T09:32:14.223Z,3.25
2022-09-23T09:34:44.391Z,2.83
2022-09-23T09:37:14.735Z,2.92
2022-09-23T09:39:42.291Z,1.27
2022-09-23T09:42:14.521Z,2.13
2022-09-23T09:44:44.872Z,0.65
2022-09-23T09:47:28.441Z,3.50
2022-09-23T09:49:58.904Z,2.40
2022-09-23T09:52:29.521Z,1.67
2022-09-23T09:54:59.441Z,1.38
2022-09-23T09:57:33.534Z,1.92
2022-09-23T10:00:18.867Z,1.67
2022-09-23T10:02:48.148Z,1.25
2022-09-23T10:05:25.614Z,0.80
2022-09-23T10:07:53.130Z,0.70
2022-09-23T10:10:32.548Z,2.10
2022-09-23T10:13:13.331Z,1.95
2022-09-23T10:15:45.008Z,1.55
2022-09-23T10:18:20.647Z,1.60
2022-09-23T10:20:48.981Z,2.10
2022-09-23T10:23:17.579Z,1.25
2022-09-23T10:25:55.777Z,1.25
2022-09-23T10:28:34.100Z,1.27
2022-09-23T10:31:05.500Z,0.77
2022-09-23T10:33:36.173Z,1.15
2022-09-23T10:36:03.805Z,0.98
2022-09-23T10:38:31.347Z,0.90
2022-09-23T10:41:16.485Z,1.08
2022-09-23T10:44:06.948Z,1.15
2022-09-23T10:46:41.133Z,1.48
2022-09-23T10:49:25.982Z,1.58
2022-09-23T10:51:57.028Z,1.40
2022-09-23T10:54:30.005Z,0.75
2022-09-23T10:57:02.382Z,1.17
2022-09-23T10:59:35.821Z,1.27
2022-09-23T11:02:11.696Z,1.35
2022-09-23T11:05:00.445Z,0.85
2022-09-23T11:07:37.310Z,1.23
2022-09-23T11:10:44.978Z,1.10
2022-09-23T11:13:18.928Z,0.88
2022-09-23T11:15:52.846Z,0.90
2022-09-23T11:18:38.976Z,0.80
2022-09-23T11:21:20.942Z,1.02
2022-09-23T11:23:55.657Z,1.15
2022-09-23T11:26:32.848Z,0.77
2022-09-23T11:29:18.862Z,0.80
2022-09-23T11:31:57.398Z,0.50
2022-09-23T11:34:34.093Z,0.73
2022-09-23T11:37:06.344Z,0.22
2022-09-23T11:39:37.023Z,0.65
2022-09-23T11:42:12.777Z,0.57
2022-09-23T11:44:43.153Z,0.95
2022-09-23T11:47:14.500Z,0.60
2022-09-23T11:49:46.917Z,0.70
2022-09-23T11:52:19.583Z,0.68
2022-09-23T11:54:50.109Z,0.47
2022-09-23T11:57:24.160Z,0.75
2022-09-23T11:59:53.990Z,0.30
2022-09-23T12:02:29.650Z,0.40
2022-09-23T12:05:01.286Z,0.45
2022-09-23T12:07:35.583Z,1.58
2022-09-23T12:10:04.179Z,1.13
2022-09-23T12:12:36.905Z,1.48
2022-09-23T12:15:07.367Z,0.40
2022-09-23T12:17:52.913Z,0.85
2022-09-23T12:20:28.129Z,0.43
2022-09-23T12:23:01.107Z,1.63
2022-09-23T12:25:38.242Z,0.52
2022-09-23T12:28:07.451Z,0.45
2022-09-23T12:30:36.268Z,0.50
2022-09-23T12:33:12.210Z,0.45
2022-09-23T12:35:42.347Z,1.20
2022-09-23T12:38:15.806Z,1.90
2022-09-23T12:40:44.652Z,0.95
2022-09-23T12:43:19.386Z,0.50
2022-09-23T12:45:48.125Z,0.95
2022-09-23T12:48:44.440Z,0.68
2022-09-23T12:51:21.812Z,0.88
2022-09-23T12:53:58.425Z,0.93
2022-09-23T12:56:27.485Z,1.20
2022-09-23T12:58:58.796Z,1.20
2022-09-23T13:01:27.274Z,0.77
2022-09-23T13:04:13.562Z,0.82
2022-09-23T13:06:42.052Z,0.45
2022-09-23T13:09:16.328Z,0.40
2022-09-23T13:11:45.306Z,1.30
2022-09-23T13:14:16.172Z,0.43
2022-09-23T13:16:45.602Z,0.55
2022-09-23T13:19:28.088Z,0.70
2022-09-23T13:22:08.908Z,0.55
2022-09-23T13:24:42.370Z,0.43
2022-09-23T13:27:15.796Z,0.55
2022-09-23T13:29:45.008Z,0.60
2022-09-23T13:32:13.515Z,1.13
2022-09-23T13:34:44.208Z,0.60
2022-09-23T13:37:22.239Z,1.00
2022-09-23T13:39:51.928Z,0.57
2022-09-23T13:42:25.594Z,0.73
2022-09-23T13:44:55.493Z,0.75
2022-09-23T13:47:23.078Z,1.75
2022-09-23T13:49:50.644Z,0.55
2022-09-23T13:52:24.917Z,0.95
2022-09-23T13:54:53.884Z,0.50
2022-09-23T13:57:29.173Z,1.10
2022-09-23T14:00:01.208Z,1.23
2022-09-23T14:02:32.940Z,1.63
2022-09-23T14:05:12.501Z,0.60
2022-09-23T14:07:40.152Z,1.63
2022-09-23T14:10:09.511Z,0.63
2022-09-23T14:12:39.439Z,0.65
2022-09-23T14:15:07.309Z,0.43
2022-09-23T14:17:35.417Z,0.55
2022-09-23T14:20:03.251Z,0.50
2022-09-23T14:22:31.149Z,0.80
2022-09-23T14:24:59.188Z,0.60
2022-09-23T14:27:29.880Z,0.40
2022-09-23T14:29:57.917Z,1.05
2022-09-23T14:32:28.090Z,0.90
2022-09-23T14:35:08.172Z,1.15
2022-09-23T14:37:59.133Z,0.90
2022-09-23T14:40:27.621Z,1.15
2022-09-23T14:43:00.986Z,1.20
2022-09-23T14:45:31.096Z,1.48
2022-09-23T14:47:59.993Z,1.15
2022-09-23T14:50:39.251Z,0.93
2022-09-23T14:53:07.785Z,1.10
2022-09-23T14:55:35.337Z,0.93
2022-09-23T14:58:05.662Z,0.73
2022-09-23T15:00:33.394Z,1.05
2022-09-23T15:03:01.884Z,0.40
2022-09-23T15:05:32.516Z,0.47
2022-09-23T15:08:02.226Z,0.45
2022-09-23T15:10:32.026Z,0.63
2022-09-23T15:13:05.811Z,0.70
2022-09-23T15:15:33.661Z,0.57
2022-09-23T15:18:04.952Z,0.35
2022-09-23T15:20:32.852Z,1.17
2022-09-23T15:23:01.065Z,0.60
2022-09-23T15:25:32.400Z,1.35
2022-09-23T15:28:02.309Z,1.45
2022-09-23T15:30:31.564Z,1.27
2022-09-23T15:32:59.843Z,1.23
2022-09-23T15:35:27.688Z,1.42
2022-09-23T15:37:57.036Z,1.58
2022-09-23T15:40:25.868Z,1.17
2022-09-23T15:42:55.501Z,1.20
2022-09-23T15:45:28.754Z,1.60
2022-09-23T15:47:59.774Z,1.50
2022-09-23T15:50:28.335Z,1.27
2022-09-23T15:52:55.924Z,1.25
2022-09-23T15:55:24.142Z,1.02
2022-09-23T15:57:51.758Z,0.98
2022-09-23T16:00:19.359Z,0.70
2022-09-23T16:02:47.997Z,1.00
2022-09-23T16:05:22.185Z,1.10
2022-09-23T16:07:52.258Z,1.13
2022-09-23T16:10:21.012Z,1.33
2022-09-23T16:12:48.625Z,0.90
2022-09-23T16:15:17.574Z,1.10
2022-09-23T16:17:45.310Z,0.95
2022-09-23T16:20:13.452Z,1.08
2022-09-23T16:22:42.355Z,0.82
2022-09-23T16:25:11.236Z,1.40
2022-09-23T16:27:39.793Z,1.08
2022-09-23T16:30:08.106Z,1.27
2022-09-23T16:32:35.673Z,1.10
2022-09-23T16:35:03.216Z,1.23
2022-09-23T16:37:30.782Z,0.98
2022-09-23T16:40:00.365Z,1.55
2022-09-23T16:42:28.627Z,1.58
2022-09-23T16:44:56.225Z,1.25
2022-09-23T16:47:23.818Z,1.50
2022-09-23T16:49:51.381Z,1.20
2022-09-23T16:52:19.133Z,1.50
2022-09-23T16:54:48.469Z,1.42
2022-09-23T16:57:17.387Z,1.40
2022-09-23T17:00:02.333Z,1.05
2022-09-23T17:02:47.266Z,1.13
2022-09-23T17:05:16.309Z,1.10
2022-09-23T17:07:43.890Z,0.82
2022-09-23T17:10:11.893Z,1.17
2022-09-23T17:12:40.894Z,0.95
2022-09-23T17:15:09.901Z,0.73
2022-09-23T17:17:38.083Z,1.23
2022-09-23T17:20:06.637Z,1.20
2022-09-23T17:22:34.544Z,0.98
2022-09-23T17:25:02.124Z,1.00
2022-09-23T17:27:29.681Z,1.05
2022-09-23T17:29:58.663Z,0.80
2022-09-23T17:32:26.535Z,1.00
2022-09-23T17:34:54.092Z,1.42
2022-09-23T17:37:21.708Z,1.35
2022-09-23T17:39:49.272Z,1.50
2022-09-23T17:42:18.168Z,1.20
2022-09-23T17:44:45.830Z,1.30
2022-09-23T17:47:14.750Z,1.65
2022-09-23T17:49:42.911Z,1.70
2022-09-23T17:52:10.474Z,1.23
2022-09-23T17:54:38.037Z,1.33
2022-09-23T17:57:05.617Z,1.60
2022-09-23T17:59:33.177Z,1.95
2022-09-23T18:02:00.820Z,1.52
2022-09-23T18:04:29.822Z,1.63
2022-09-23T18:06:57.437Z,1.52
2022-09-23T18:09:25.178Z,1.50
2022-09-23T18:11:52.754Z,1.42
2022-09-23T18:14:21.138Z,1.75
2022-09-23T18:16:49.539Z,1.58
2022-09-23T18:19:17.669Z,1.10
2022-09-23T18:21:47.865Z,1.30
2022-09-23T18:27:03.038Z,1.55
2022-09-23T18:29:31.508Z,1.40
2022-09-23T18:31:59.433Z,1.40
2022-09-23T18:34:27.325Z,1.80
2022-09-23T18:36:56.500Z,1.58
2022-09-23T18:39:24.070Z,1.80
2022-09-23T18:41:51.678Z,1.63
2022-09-23T18:44:19.972Z,1.52
2022-09-23T18:46:47.533Z,1.60
2022-09-23T18:49:32.735Z,1.40
2022-09-23T18:52:01.864Z,1.40
2022-09-23T18:54:30.249Z,1.73
2022-09-23T18:56:59.147Z,1.98
2022-09-23T18:59:28.976Z,2.00
2022-09-23T19:01:57.131Z,5.20
2022-09-23T19:04:25.392Z,4.70
2022-09-23T19:06:53.669Z,4.82
2022-09-23T19:09:22.645Z,3.63
2022-09-23T19:11:51.979Z,3.92
2022-09-23T19:14:19.613Z,4.53
2022-09-23T19:16:48.933Z,4.22
2022-09-23T19:19:16.622Z,4.65
2022-09-23T19:21:44.197Z,5.28
2022-09-23T19:24:15.471Z,4.55
2022-09-23T19:26:45.002Z,4.85
2022-09-23T19:29:14.581Z,4.55
2022-09-23T19:31:42.245Z,4.60
2022-09-23T19:34:12.848Z,4.78
2022-09-23T19:36:42.165Z,4.82
2022-09-23T19:39:12.886Z,5.13
2022-09-23T19:41:40.444Z,4.40
2022-09-23T19:44:09.398Z,5.07
2022-09-23T19:46:37.931Z,4.57
2022-09-23T19:49:06.661Z,5.10
2022-09-23T19:51:34.885Z,4.93
2022-09-23T19:54:03.061Z,5.20
2022-09-23T19:56:30.720Z,4.93
2022-09-23T19:58:58.393Z,5.55
2022-09-23T20:01:29.302Z,5.82
2022-09-23T20:03:57.086Z,5.68
2022-09-23T20:06:24.647Z,5.28
2022-09-23T20:08:52.576Z,5.50
2022-09-23T20:11:24.805Z,4.78
2022-09-23T20:14:00.553Z,5.38
2022-09-23T20:16:32.006Z,5.20
2022-09-23T20:19:03.295Z,4.93
2022-09-23T20:21:30.923Z,6.40
2022-09-23T20:23:58.869Z,5.97
2022-09-23T20:26:44.025Z,5.50
2022-09-23T20:29:11.788Z,5.57
2022-09-23T20:31:41.497Z,5.97
2022-09-23T20:34:10.599Z,5.40
2022-09-23T20:36:39.495Z,4.97
2022-09-23T20:39:07.047Z,5.03
2022-09-23T20:41:37.068Z,5.22
2022-09-23T20:44:06.336Z,4.47
2022-09-23T20:46:34.122Z,4.80
2022-09-23T20:49:03.597Z,5.25
2022-09-23T20:51:33.070Z,5.13
2022-09-23T20:54:00.982Z,4.70
2022-09-23T20:56:29.122Z,4.88
2022-09-23T20:59:00.129Z,5.30
2022-09-23T21:01:27.932Z,5.10
2022-09-23T21:03:55.971Z,5.22
2022-09-23T21:06:26.143Z,5.88
2022-09-23T21:08:54.541Z,5.85
2022-09-23T21:11:22.442Z,5.65
2022-09-23T21:13:50.948Z,5.38
2022-09-23T21:16:19.764Z,3.88
2022-09-23T21:18:48.019Z,5.43
2022-09-23T21:21:17.221Z,4.05
2022-09-23T21:23:46.666Z,4.50
2022-09-23T21:26:15.426Z,5.03
2022-09-23T21:28:43.661Z,5.55
2022-09-23T21:31:11.833Z,4.90
2022-09-23T21:33:39.662Z,5.55
2022-09-23T21:36:07.920Z,5.90
2022-09-23T21:38:35.754Z,5.20
2022-09-23T21:41:05.562Z,4.20
2022-09-23T21:43:34.151Z,5.57
2022-09-23T21:46:02.649Z,5.20
2022-09-23T21:48:31.245Z,5.22
2022-09-23T21:50:59.198Z,5.55
2022-09-23T21:53:29.345Z,6.07
2022-09-23T21:56:01.698Z,5.28
2022-09-23T21:58:30.909Z,5.13
2022-09-23T22:00:58.659Z,5.38
2022-09-23T22:03:26.354Z,5.63
2022-09-23T22:06:03.938Z,5.80
2022-09-23T22:08:33.021Z,5.68
2022-09-23T22:11:02.344Z,6.65
2022-09-23T22:13:31.256Z,5.60
2022-09-23T22:16:01.411Z,5.25
2022-09-23T22:18:29.361Z,6.47
2022-09-23T22:20:57.777Z,5.93
2022-09-23T22:23:25.589Z,7.00
2022-09-23T22:26:02.997Z,6.07
2022-09-23T22:28:50.338Z,6.50
2022-09-23T22:31:35.448Z,6.45
2022-09-23T22:34:03.055Z,6.05
2022-09-23T22:36:30.642Z,6.75
2022-09-23T22:39:00.560Z,6.28
2022-09-23T22:41:28.195Z,6.10
2022-09-23T22:43:58.408Z,6.88
2022-09-23T22:46:26.021Z,6.50
2022-09-23T22:48:53.659Z,6.90
2022-09-23T22:51:22.181Z,6.90
2022-09-23T22:53:49.747Z,6.88
2022-09-23T22:56:17.287Z,6.88
2022-09-23T22:58:44.877Z,6.22
2022-09-23T23:01:13.991Z,6.28
2022-09-23T23:03:41.751Z,5.63
2022-09-23T23:06:10.130Z,5.53
2022-09-23T23:08:38.126Z,5.40
2022-09-23T23:11:10.059Z,6.57
2022-09-23T23:13:38.633Z,6.28
2022-09-23T23:16:06.776Z,6.22
2022-09-23T23:18:38.926Z,6.70
2022-09-23T23:21:07.368Z,4.90
2022-09-23T23:23:37.012Z,5.88
2022-09-23T23:26:09.737Z,6.45
2022-09-23T23:28:37.531Z,6.07
2022-09-23T23:31:05.458Z,6.97
2022-09-23T23:33:33.056Z,6.10
2022-09-23T23:36:02.164Z,6.03
2022-09-23T23:38:29.732Z,6.45
2022-09-23T23:40:57.421Z,6.00
2022-09-23T23:43:25.018Z,6.35
2022-09-23T23:45:52.564Z,6.25
2022-09-23T23:48:20.207Z,6.18
2022-09-23T23:50:53.305Z,6.03
2022-09-23T23:53:22.225Z,5.97
2022-09-23T23:55:49.798Z,5.95
2022-09-23T23:58:18.037Z,5.80
